sensor_id;sensor_type;location;lat;lon;timestamp;P1;durP1;ratioP1;P2;durP2;ratioP2
3769;SDS011;1900;48.890;9.190;2023-04-19T00:01:52;17.93;;;11.50;;
3769;SDS011;1900;48.890;9.190;2023-04-19T00:04:18;17.37;;;10.70;;
3769;SDS011;1900;48.890;9.190;2023-04-19T00:06:44;22.40;;;11.73;;
3769;SDS011;1900;48.890;9.190;2023-04-19T00:09:11;21.40;;;13.60;;
3769;SDS011;1900;48.890;9.190;2023-04-19T00:11:37;17.90;;;10.63;;
3769;SDS011;1900;48.890;9.190;2023-04-19T00:14:02;16.90;;;11.07;;
3769;SDS011;1900;48.890;9.190;2023-04-19T00:16:28;15.40;;;10.33;;
3769;SDS011;1900;48.890;9.190;2023-04-19T00:18:53;16.80;;;9.73;;
3769;SDS011;1900;48.890;9.190;2023-04-19T00:21:19;17.83;;;10.67;;
3769;SDS011;1900;48.890;9.190;2023-04-19T00:23:45;14.57;;;10.97;;
3769;SDS011;1900;48.890;9.190;2023-04-19T00:26:10;18.63;;;11.03;;
3769;SDS011;1900;48.890;9.190;2023-04-19T00:28:40;19.13;;;11.30;;
3769;SDS011;1900;48.890;9.190;2023-04-19T00:31:07;16.60;;;10.27;;
3769;SDS011;1900;48.890;9.190;2023-04-19T00:33:33;14.00;;;10.33;;
3769;SDS011;1900;48.890;9.190;2023-04-19T00:35:58;19.27;;;12.10;;
3769;SDS011;1900;48.890;9.190;2023-04-19T00:38:24;15.20;;;10.67;;
3769;SDS011;1900;48.890;9.190;2023-04-19T00:40:50;15.83;;;10.57;;
3769;SDS011;1900;48.890;9.190;2023-04-19T00:43:19;15.43;;;10.10;;
3769;SDS011;1900;48.890;9.190;2023-04-19T00:45:45;14.73;;;10.50;;
3769;SDS011;1900;48.890;9.190;2023-04-19T00:48:12;16.27;;;10.80;;
3769;SDS011;1900;48.890;9.190;2023-04-19T00:50:38;15.30;;;10.50;;
3769;SDS011;1900;48.890;9.190;2023-04-19T00:53:04;24.13;;;11.83;;
3769;SDS011;1900;48.890;9.190;2023-04-19T00:55:31;18.60;;;10.80;;
3769;SDS011;1900;48.890;9.190;2023-04-19T00:57:57;17.00;;;11.30;;
3769;SDS011;1900;48.890;9.190;2023-04-19T01:00:24;27.40;;;11.40;;
3769;SDS011;1900;48.890;9.190;2023-04-19T01:02:50;16.87;;;10.43;;
3769;SDS011;1900;48.890;9.190;2023-04-19T01:05:17;15.17;;;10.77;;
3769;SDS011;1900;48.890;9.190;2023-04-19T01:07:43;20.23;;;12.13;;
3769;SDS011;1900;48.890;9.190;2023-04-19T01:10:13;14.50;;;10.60;;
3769;SDS011;1900;48.890;9.190;2023-04-19T01:12:39;18.43;;;12.67;;
3769;SDS011;1900;48.890;9.190;2023-04-19T01:15:05;16.93;;;10.97;;
3769;SDS011;1900;48.890;9.190;2023-04-19T01:17:31;15.70;;;11.30;;
3769;SDS011;1900;48.890;9.190;2023-04-19T01:19:58;18.80;;;11.07;;
3769;SDS011;1900;48.890;9.190;2023-04-19T01:22:25;17.17;;;12.77;;
3769;SDS011;1900;48.890;9.190;2023-04-19T01:24:50;16.40;;;10.20;;
3769;SDS011;1900;48.890;9.190;2023-04-19T01:27:16;20.07;;;12.20;;
3769;SDS011;1900;48.890;9.190;2023-04-19T01:29:44;13.80;;;10.20;;
3769;SDS011;1900;48.890;9.190;2023-04-19T01:32:10;18.10;;;11.13;;
3769;SDS011;1900;48.890;9.190;2023-04-19T01:34:37;19.83;;;11.70;;
3769;SDS011;1900;48.890;9.190;2023-04-19T01:37:03;18.20;;;10.87;;
3769;SDS011;1900;48.890;9.190;2023-04-19T01:39:28;17.07;;;10.73;;
3769;SDS011;1900;48.890;9.190;2023-04-19T01:41:54;17.37;;;10.83;;
3769;SDS011;1900;48.890;9.190;2023-04-19T01:44:20;21.93;;;11.20;;
3769;SDS011;1900;48.890;9.190;2023-04-19T01:46:46;17.03;;;11.40;;
3769;SDS011;1900;48.890;9.190;2023-04-19T01:49:12;14.93;;;11.07;;
3769;SDS011;1900;48.890;9.190;2023-04-19T01:51:38;22.23;;;12.43;;
3769;SDS011;1900;48.890;9.190;2023-04-19T01:54:03;15.80;;;11.13;;
3769;SDS011;1900;48.890;9.190;2023-04-19T01:56:29;19.20;;;11.47;;
3769;SDS011;1900;48.890;9.190;2023-04-19T01:58:55;19.17;;;10.97;;
3769;SDS011;1900;48.890;9.190;2023-04-19T02:01:21;16.03;;;11.30;;
3769;SDS011;1900;48.890;9.190;2023-04-19T02:03:47;16.83;;;11.27;;
3769;SDS011;1900;48.890;9.190;2023-04-19T02:06:13;19.80;;;11.87;;
3769;SDS011;1900;48.890;9.190;2023-04-19T02:08:40;18.73;;;11.67;;
3769;SDS011;1900;48.890;9.190;2023-04-19T02:11:07;18.87;;;12.40;;
3769;SDS011;1900;48.890;9.190;2023-04-19T02:13:33;17.00;;;11.20;;
3769;SDS011;1900;48.890;9.190;2023-04-19T02:15:59;19.87;;;11.53;;
3769;SDS011;1900;48.890;9.190;2023-04-19T02:18:28;11.70;;;9.07;;
3769;SDS011;1900;48.890;9.190;2023-04-19T02:20:55;20.07;;;12.50;;
3769;SDS011;1900;48.890;9.190;2023-04-19T02:23:20;16.63;;;10.93;;
3769;SDS011;1900;48.890;9.190;2023-04-19T02:25:46;18.67;;;11.50;;
3769;SDS011;1900;48.890;9.190;2023-04-19T02:28:13;19.60;;;11.57;;
3769;SDS011;1900;48.890;9.190;2023-04-19T02:30:38;19.70;;;11.70;;
3769;SDS011;1900;48.890;9.190;2023-04-19T02:33:04;18.00;;;11.70;;
3769;SDS011;1900;48.890;9.190;2023-04-19T02:35:32;14.90;;;10.90;;
3769;SDS011;1900;48.890;9.190;2023-04-19T02:37:59;17.60;;;11.50;;
3769;SDS011;1900;48.890;9.190;2023-04-19T02:40:28;17.37;;;11.40;;
3769;SDS011;1900;48.890;9.190;2023-04-19T02:42:56;19.80;;;11.97;;
3769;SDS011;1900;48.890;9.190;2023-04-19T02:45:22;16.67;;;11.93;;
3769;SDS011;1900;48.890;9.190;2023-04-19T02:47:48;18.87;;;11.30;;
3769;SDS011;1900;48.890;9.190;2023-04-19T02:50:15;21.53;;;12.80;;
3769;SDS011;1900;48.890;9.190;2023-04-19T02:52:46;17.07;;;10.73;;
3769;SDS011;1900;48.890;9.190;2023-04-19T02:55:12;24.03;;;12.03;;
3769;SDS011;1900;48.890;9.190;2023-04-19T02:57:38;16.27;;;11.40;;
3769;SDS011;1900;48.890;9.190;2023-04-19T03:00:06;20.27;;;12.40;;
3769;SDS011;1900;48.890;9.190;2023-04-19T03:02:34;17.30;;;11.30;;
3769;SDS011;1900;48.890;9.190;2023-04-19T03:05:00;17.60;;;12.07;;
3769;SDS011;1900;48.890;9.190;2023-04-19T03:07:26;17.80;;;12.47;;
3769;SDS011;1900;48.890;9.190;2023-04-19T03:09:52;17.33;;;11.67;;
3769;SDS011;1900;48.890;9.190;2023-04-19T03:12:18;18.23;;;11.67;;
3769;SDS011;1900;48.890;9.190;2023-04-19T03:14:44;15.80;;;11.63;;
3769;SDS011;1900;48.890;9.190;2023-04-19T03:17:10;17.33;;;12.33;;
3769;SDS011;1900;48.890;9.190;2023-04-19T03:19:35;18.87;;;10.97;;
3769;SDS011;1900;48.890;9.190;2023-04-19T03:22:01;18.67;;;12.40;;
3769;SDS011;1900;48.890;9.190;2023-04-19T03:24:29;19.90;;;11.93;;
3769;SDS011;1900;48.890;9.190;2023-04-19T03:26:57;19.83;;;11.67;;
3769;SDS011;1900;48.890;9.190;2023-04-19T03:29:28;19.17;;;12.40;;
3769;SDS011;1900;48.890;9.190;2023-04-19T03:32:01;15.40;;;12.23;;
3769;SDS011;1900;48.890;9.190;2023-04-19T03:34:28;19.67;;;12.57;;
3769;SDS011;1900;48.890;9.190;2023-04-19T03:36:53;15.07;;;11.33;;
3769;SDS011;1900;48.890;9.190;2023-04-19T03:39:19;23.10;;;11.60;;
3769;SDS011;1900;48.890;9.190;2023-04-19T03:41:49;17.87;;;13.00;;
3769;SDS011;1900;48.890;9.190;2023-04-19T03:44:33;22.23;;;12.27;;
3769;SDS011;1900;48.890;9.190;2023-04-19T03:47:01;18.53;;;11.30;;
3769;SDS011;1900;48.890;9.190;2023-04-19T03:49:31;17.77;;;11.70;;
3769;SDS011;1900;48.890;9.190;2023-04-19T03:52:02;15.13;;;10.90;;
3769;SDS011;1900;48.890;9.190;2023-04-19T03:54:28;16.77;;;11.90;;
3769;SDS011;1900;48.890;9.190;2023-04-19T03:56:55;15.53;;;10.40;;
3769;SDS011;1900;48.890;9.190;2023-04-19T03:59:21;22.23;;;13.30;;
3769;SDS011;1900;48.890;9.190;2023-04-19T04:01:47;18.60;;;12.93;;
3769;SDS011;1900;48.890;9.190;2023-04-19T04:04:12;21.00;;;13.20;;
3769;SDS011;1900;48.890;9.190;2023-04-19T04:06:38;19.90;;;12.37;;
3769;SDS011;1900;48.890;9.190;2023-04-19T04:09:05;18.83;;;11.97;;
3769;SDS011;1900;48.890;9.190;2023-04-19T04:11:31;15.93;;;11.77;;
3769;SDS011;1900;48.890;9.190;2023-04-19T04:13:57;13.90;;;10.67;;
3769;SDS011;1900;48.890;9.190;2023-04-19T04:16:26;16.73;;;11.67;;
3769;SDS011;1900;48.890;9.190;2023-04-19T04:18:53;19.60;;;11.90;;
3769;SDS011;1900;48.890;9.190;2023-04-19T04:21:22;16.73;;;11.67;;
3769;SDS011;1900;48.890;9.190;2023-04-19T04:23:49;17.67;;;12.40;;
3769;SDS011;1900;48.890;9.190;2023-04-19T04:26:26;21.00;;;12.27;;
3769;SDS011;1900;48.890;9.190;2023-04-19T04:29:18;19.27;;;11.27;;
3769;SDS011;1900;48.890;9.190;2023-04-19T04:31:44;21.30;;;13.10;;
3769;SDS011;1900;48.890;9.190;2023-04-19T04:34:10;16.53;;;11.67;;
3769;SDS011;1900;48.890;9.190;2023-04-19T04:36:44;18.87;;;14.10;;
3769;SDS011;1900;48.890;9.190;2023-04-19T04:39:10;17.10;;;11.07;;
3769;SDS011;1900;48.890;9.190;2023-04-19T04:41:36;17.17;;;11.10;;
3769;SDS011;1900;48.890;9.190;2023-04-19T04:44:05;21.73;;;11.93;;
3769;SDS011;1900;48.890;9.190;2023-04-19T04:46:34;16.73;;;12.13;;
3769;SDS011;1900;48.890;9.190;2023-04-19T04:49:00;17.33;;;11.43;;
3769;SDS011;1900;48.890;9.190;2023-04-19T04:51:26;15.87;;;11.60;;
3769;SDS011;1900;48.890;9.190;2023-04-19T04:53:53;17.40;;;11.77;;
3769;SDS011;1900;48.890;9.190;2023-04-19T04:56:19;21.60;;;12.10;;
3769;SDS011;1900;48.890;9.190;2023-04-19T04:58:45;16.80;;;12.30;;
3769;SDS011;1900;48.890;9.190;2023-04-19T05:01:16;19.30;;;12.90;;
3769;SDS011;1900;48.890;9.190;2023-04-19T05:03:44;18.33;;;12.53;;
3769;SDS011;1900;48.890;9.190;2023-04-19T05:06:15;18.20;;;11.67;;
3769;SDS011;1900;48.890;9.190;2023-04-19T05:08:40;22.63;;;12.87;;
3769;SDS011;1900;48.890;9.190;2023-04-19T05:11:22;17.67;;;11.97;;
3769;SDS011;1900;48.890;9.190;2023-04-19T05:13:48;16.60;;;11.80;;
3769;SDS011;1900;48.890;9.190;2023-04-19T05:16:13;23.90;;;13.30;;
3769;SDS011;1900;48.890;9.190;2023-04-19T05:18:42;16.13;;;11.93;;
3769;SDS011;1900;48.890;9.190;2023-04-19T05:21:08;18.40;;;11.50;;
3769;SDS011;1900;48.890;9.190;2023-04-19T05:23:36;19.80;;;12.43;;
3769;SDS011;1900;48.890;9.190;2023-04-19T05:26:02;16.63;;;10.47;;
3769;SDS011;1900;48.890;9.190;2023-04-19T05:28:28;16.57;;;10.67;;
3769;SDS011;1900;48.890;9.190;2023-04-19T05:31:10;19.17;;;11.70;;
3769;SDS011;1900;48.890;9.190;2023-04-19T05:33:51;18.43;;;11.57;;
3769;SDS011;1900;48.890;9.190;2023-04-19T05:36:17;21.83;;;12.33;;
3769;SDS011;1900;48.890;9.190;2023-04-19T05:38:43;16.70;;;10.87;;
3769;SDS011;1900;48.890;9.190;2023-04-19T05:41:09;17.90;;;12.60;;
3769;SDS011;1900;48.890;9.190;2023-04-19T05:43:35;17.80;;;11.40;;
3769;SDS011;1900;48.890;9.190;2023-04-19T05:46:02;17.03;;;11.60;;
3769;SDS011;1900;48.890;9.190;2023-04-19T05:48:27;16.77;;;10.80;;
3769;SDS011;1900;48.890;9.190;2023-04-19T05:51:05;17.33;;;11.47;;
3769;SDS011;1900;48.890;9.190;2023-04-19T05:53:54;16.20;;;10.60;;
3769;SDS011;1900;48.890;9.190;2023-04-19T05:56:19;18.60;;;11.47;;
3769;SDS011;1900;48.890;9.190;2023-04-19T05:58:45;21.10;;;11.90;;
3769;SDS011;1900;48.890;9.190;2023-04-19T06:01:11;22.20;;;10.87;;
3769;SDS011;1900;48.890;9.190;2023-04-19T06:03:37;18.90;;;11.53;;
3769;SDS011;1900;48.890;9.190;2023-04-19T06:06:02;17.90;;;11.20;;
3769;SDS011;1900;48.890;9.190;2023-04-19T06:08:28;16.23;;;11.23;;
3769;SDS011;1900;48.890;9.190;2023-04-19T06:10:54;28.80;;;11.20;;
3769;SDS011;1900;48.890;9.190;2023-04-19T06:13:20;15.90;;;12.60;;
3769;SDS011;1900;48.890;9.190;2023-04-19T06:15:47;15.30;;;10.57;;
3769;SDS011;1900;48.890;9.190;2023-04-19T06:18:13;16.97;;;11.47;;
3769;SDS011;1900;48.890;9.190;2023-04-19T06:20:39;17.90;;;11.37;;
3769;SDS011;1900;48.890;9.190;2023-04-19T06:23:05;17.90;;;11.80;;
3769;SDS011;1900;48.890;9.190;2023-04-19T06:25:31;17.80;;;12.00;;
3769;SDS011;1900;48.890;9.190;2023-04-19T06:27:57;14.40;;;10.77;;
3769;SDS011;1900;48.890;9.190;2023-04-19T06:30:23;16.43;;;10.73;;
3769;SDS011;1900;48.890;9.190;2023-04-19T06:32:49;16.00;;;10.90;;
3769;SDS011;1900;48.890;9.190;2023-04-19T06:35:14;16.17;;;11.40;;
3769;SDS011;1900;48.890;9.190;2023-04-19T06:37:40;14.10;;;10.37;;
3769;SDS011;1900;48.890;9.190;2023-04-19T06:40:06;16.30;;;10.27;;
3769;SDS011;1900;48.890;9.190;2023-04-19T06:42:33;16.63;;;10.60;;
3769;SDS011;1900;48.890;9.190;2023-04-19T06:44:59;16.97;;;10.60;;
3769;SDS011;1900;48.890;9.190;2023-04-19T06:47:25;16.77;;;11.23;;
3769;SDS011;1900;48.890;9.190;2023-04-19T06:49:51;16.73;;;10.77;;
3769;SDS011;1900;48.890;9.190;2023-04-19T06:52:16;19.00;;;11.97;;
3769;SDS011;1900;48.890;9.190;2023-04-19T06:54:46;15.53;;;10.60;;
3769;SDS011;1900;48.890;9.190;2023-04-19T06:57:13;28.23;;;17.30;;
3769;SDS011;1900;48.890;9.190;2023-04-19T06:59:39;19.13;;;11.43;;
3769;SDS011;1900;48.890;9.190;2023-04-19T07:02:05;18.70;;;12.07;;
3769;SDS011;1900;48.890;9.190;2023-04-19T07:04:31;19.23;;;12.67;;
3769;SDS011;1900;48.890;9.190;2023-04-19T07:06:56;26.13;;;12.97;;
3769;SDS011;1900;48.890;9.190;2023-04-19T07:09:22;19.77;;;12.30;;
3769;SDS011;1900;48.890;9.190;2023-04-19T07:11:48;18.70;;;10.70;;
3769;SDS011;1900;48.890;9.190;2023-04-19T07:14:15;18.90;;;10.30;;
3769;SDS011;1900;48.890;9.190;2023-04-19T07:16:43;20.70;;;11.40;;
3769;SDS011;1900;48.890;9.190;2023-04-19T07:19:09;16.43;;;10.33;;
3769;SDS011;1900;48.890;9.190;2023-04-19T07:21:35;16.83;;;11.00;;
3769;SDS011;1900;48.890;9.190;2023-04-19T07:24:02;13.73;;;10.00;;
3769;SDS011;1900;48.890;9.190;2023-04-19T07:26:28;15.13;;;10.00;;
3769;SDS011;1900;48.890;9.190;2023-04-19T07:28:54;17.73;;;10.90;;
3769;SDS011;1900;48.890;9.190;2023-04-19T07:31:21;13.97;;;9.97;;
3769;SDS011;1900;48.890;9.190;2023-04-19T07:33:49;11.67;;;9.20;;
3769;SDS011;1900;48.890;9.190;2023-04-19T07:36:15;17.17;;;10.20;;
3769;SDS011;1900;48.890;9.190;2023-04-19T07:38:40;17.30;;;11.17;;
3769;SDS011;1900;48.890;9.190;2023-04-19T07:41:06;16.43;;;9.80;;
3769;SDS011;1900;48.890;9.190;2023-04-19T07:43:32;15.33;;;10.37;;
3769;SDS011;1900;48.890;9.190;2023-04-19T07:45:57;17.03;;;9.97;;
3769;SDS011;1900;48.890;9.190;2023-04-19T07:48:23;14.37;;;9.63;;
3769;SDS011;1900;48.890;9.190;2023-04-19T07:50:49;15.80;;;11.13;;
3769;SDS011;1900;48.890;9.190;2023-04-19T07:53:15;17.07;;;10.63;;
3769;SDS011;1900;48.890;9.190;2023-04-19T07:55:43;15.07;;;10.20;;
3769;SDS011;1900;48.890;9.190;2023-04-19T07:58:09;12.23;;;9.00;;
3769;SDS011;1900;48.890;9.190;2023-04-19T08:00:36;14.87;;;10.33;;
3769;SDS011;1900;48.890;9.190;2023-04-19T08:03:02;13.67;;;10.50;;
3769;SDS011;1900;48.890;9.190;2023-04-19T08:05:28;16.20;;;10.10;;
3769;SDS011;1900;48.890;9.190;2023-04-19T08:07:55;17.73;;;10.30;;
3769;SDS011;1900;48.890;9.190;2023-04-19T08:10:21;17.00;;;11.17;;
3769;SDS011;1900;48.890;9.190;2023-04-19T08:12:47;17.03;;;10.53;;
3769;SDS011;1900;48.890;9.190;2023-04-19T08:15:14;13.80;;;9.57;;
3769;SDS011;1900;48.890;9.190;2023-04-19T08:17:40;17.73;;;10.00;;
3769;SDS011;1900;48.890;9.190;2023-04-19T08:20:09;15.77;;;9.23;;
3769;SDS011;1900;48.890;9.190;2023-04-19T08:22:39;13.20;;;9.80;;
3769;SDS011;1900;48.890;9.190;2023-04-19T08:25:05;10.90;;;8.77;;
3769;SDS011;1900;48.890;9.190;2023-04-19T08:27:31;13.90;;;9.70;;
3769;SDS011;1900;48.890;9.190;2023-04-19T08:29:57;16.13;;;9.03;;
3769;SDS011;1900;48.890;9.190;2023-04-19T08:32:22;15.70;;;9.87;;
3769;SDS011;1900;48.890;9.190;2023-04-19T08:34:48;16.83;;;10.40;;
3769;SDS011;1900;48.890;9.190;2023-04-19T08:37:14;15.10;;;10.00;;
3769;SDS011;1900;48.890;9.190;2023-04-19T08:39:40;15.83;;;9.30;;
3769;SDS011;1900;48.890;9.190;2023-04-19T08:42:06;17.43;;;9.73;;
3769;SDS011;1900;48.890;9.190;2023-04-19T08:44:33;19.50;;;10.33;;
3769;SDS011;1900;48.890;9.190;2023-04-19T08:47:02;19.90;;;10.90;;
3769;SDS011;1900;48.890;9.190;2023-04-19T08:49:30;14.70;;;10.00;;
3769;SDS011;1900;48.890;9.190;2023-04-19T08:52:00;15.30;;;9.67;;
3769;SDS011;1900;48.890;9.190;2023-04-19T08:54:27;15.90;;;10.13;;
3769;SDS011;1900;48.890;9.190;2023-04-19T08:56:54;15.93;;;10.57;;
3769;SDS011;1900;48.890;9.190;2023-04-19T08:59:22;15.83;;;10.40;;
3769;SDS011;1900;48.890;9.190;2023-04-19T09:01:48;17.07;;;10.13;;
3769;SDS011;1900;48.890;9.190;2023-04-19T09:04:14;14.63;;;9.23;;
3769;SDS011;1900;48.890;9.190;2023-04-19T09:06:40;15.70;;;9.97;;
3769;SDS011;1900;48.890;9.190;2023-04-19T09:12:00;15.57;;;10.10;;
3769;SDS011;1900;48.890;9.190;2023-04-19T09:14:26;15.63;;;10.40;;
3769;SDS011;1900;48.890;9.190;2023-04-19T09:16:55;16.63;;;9.73;;
3769;SDS011;1900;48.890;9.190;2023-04-19T09:19:45;14.10;;;9.20;;
3769;SDS011;1900;48.890;9.190;2023-04-19T09:22:14;15.83;;;10.23;;
3769;SDS011;1900;48.890;9.190;2023-04-19T09:24:40;14.17;;;9.50;;
3769;SDS011;1900;48.890;9.190;2023-04-19T09:27:06;14.93;;;9.83;;
3769;SDS011;1900;48.890;9.190;2023-04-19T09:29:34;15.63;;;9.50;;
3769;SDS011;1900;48.890;9.190;2023-04-19T09:32:00;15.90;;;9.73;;
3769;SDS011;1900;48.890;9.190;2023-04-19T09:34:25;16.93;;;9.00;;
3769;SDS011;1900;48.890;9.190;2023-04-19T09:36:53;13.17;;;8.70;;
3769;SDS011;1900;48.890;9.190;2023-04-19T09:39:32;12.83;;;8.50;;
3769;SDS011;1900;48.890;9.190;2023-04-19T09:42:00;12.83;;;9.10;;
3769;SDS011;1900;48.890;9.190;2023-04-19T09:44:26;13.13;;;7.77;;
3769;SDS011;1900;48.890;9.190;2023-04-19T09:46:52;9.97;;;7.83;;
3769;SDS011;1900;48.890;9.190;2023-04-19T09:49:20;11.90;;;8.73;;
3769;SDS011;1900;48.890;9.190;2023-04-19T09:51:50;12.33;;;8.27;;
3769;SDS011;1900;48.890;9.190;2023-04-19T09:54:21;13.43;;;8.33;;
3769;SDS011;1900;48.890;9.190;2023-04-19T09:56:48;16.00;;;9.70;;
3769;SDS011;1900;48.890;9.190;2023-04-19T09:59:14;11.00;;;8.83;;
3769;SDS011;1900;48.890;9.190;2023-04-19T10:04:09;14.73;;;9.17;;
3769;SDS011;1900;48.890;9.190;2023-04-19T10:06:37;22.27;;;9.60;;
3769;SDS011;1900;48.890;9.190;2023-04-19T10:09:04;13.03;;;9.60;;
3769;SDS011;1900;48.890;9.190;2023-04-19T10:11:32;12.93;;;8.47;;
3769;SDS011;1900;48.890;9.190;2023-04-19T10:14:08;12.77;;;8.57;;
3769;SDS011;1900;48.890;9.190;2023-04-19T10:16:36;14.43;;;9.03;;
3769;SDS011;1900;48.890;9.190;2023-04-19T10:19:03;13.73;;;9.20;;
3769;SDS011;1900;48.890;9.190;2023-04-19T10:21:32;16.13;;;10.07;;
3769;SDS011;1900;48.890;9.190;2023-04-19T10:23:59;14.53;;;9.50;;
3769;SDS011;1900;48.890;9.190;2023-04-19T10:26:25;12.07;;;8.43;;
3769;SDS011;1900;48.890;9.190;2023-04-19T10:28:52;11.93;;;9.60;;
3769;SDS011;1900;48.890;9.190;2023-04-19T10:31:20;17.00;;;8.57;;
3769;SDS011;1900;48.890;9.190;2023-04-19T10:33:47;10.73;;;8.83;;
3769;SDS011;1900;48.890;9.190;2023-04-19T10:36:15;14.20;;;10.00;;
3769;SDS011;1900;48.890;9.190;2023-04-19T10:41:16;18.00;;;9.43;;
3769;SDS011;1900;48.890;9.190;2023-04-19T10:48:56;13.10;;;8.87;;
3769;SDS011;1900;48.890;9.190;2023-04-19T10:54:07;16.13;;;7.70;;
3769;SDS011;1900;48.890;9.190;2023-04-19T11:04:09;14.67;;;10.47;;
3769;SDS011;1900;48.890;9.190;2023-04-19T11:06:37;13.20;;;9.50;;
3769;SDS011;1900;48.890;9.190;2023-04-19T11:09:28;14.30;;;9.73;;
3769;SDS011;1900;48.890;9.190;2023-04-19T11:11:56;16.43;;;9.60;;
3769;SDS011;1900;48.890;9.190;2023-04-19T11:14:25;13.43;;;10.03;;
3769;SDS011;1900;48.890;9.190;2023-04-19T11:16:52;14.57;;;10.50;;
3769;SDS011;1900;48.890;9.190;2023-04-19T11:19:18;16.00;;;11.53;;
3769;SDS011;1900;48.890;9.190;2023-04-19T11:21:46;18.87;;;12.07;;
3769;SDS011;1900;48.890;9.190;2023-04-19T11:24:13;22.37;;;12.27;;
3769;SDS011;1900;48.890;9.190;2023-04-19T11:26:42;15.70;;;10.70;;
3769;SDS011;1900;48.890;9.190;2023-04-19T11:29:10;15.77;;;10.60;;
3769;SDS011;1900;48.890;9.190;2023-04-19T11:31:36;16.30;;;10.43;;
3769;SDS011;1900;48.890;9.190;2023-04-19T11:34:02;18.40;;;12.27;;
3769;SDS011;1900;48.890;9.190;2023-04-19T11:36:29;16.80;;;11.27;;
3769;SDS011;1900;48.890;9.190;2023-04-19T11:38:56;20.30;;;13.00;;
3769;SDS011;1900;48.890;9.190;2023-04-19T11:41:22;19.87;;;11.63;;
3769;SDS011;1900;48.890;9.190;2023-04-19T11:43:47;16.20;;;11.47;;
3769;SDS011;1900;48.890;9.190;2023-04-19T11:46:13;14.47;;;10.97;;
3769;SDS011;1900;48.890;9.190;2023-04-19T11:48:48;18.83;;;11.83;;
3769;SDS011;1900;48.890;9.190;2023-04-19T11:51:16;23.27;;;13.67;;
3769;SDS011;1900;48.890;9.190;2023-04-19T11:53:42;17.27;;;12.03;;
3769;SDS011;1900;48.890;9.190;2023-04-19T11:56:08;17.70;;;13.40;;
3769;SDS011;1900;48.890;9.190;2023-04-19T12:01:12;14.30;;;11.47;;
3769;SDS011;1900;48.890;9.190;2023-04-19T12:03:44;19.90;;;12.27;;
3769;SDS011;1900;48.890;9.190;2023-04-19T12:06:14;19.33;;;12.60;;
3769;SDS011;1900;48.890;9.190;2023-04-19T12:08:44;21.10;;;12.47;;
3769;SDS011;1900;48.890;9.190;2023-04-19T12:11:11;19.57;;;12.33;;
3769;SDS011;1900;48.890;9.190;2023-04-19T12:13:38;18.13;;;13.40;;
3769;SDS011;1900;48.890;9.190;2023-04-19T12:16:05;16.57;;;11.80;;
3769;SDS011;1900;48.890;9.190;2023-04-19T12:18:41;28.23;;;13.80;;
3769;SDS011;1900;48.890;9.190;2023-04-19T12:21:08;22.63;;;12.40;;
3769;SDS011;1900;48.890;9.190;2023-04-19T12:23:35;21.27;;;12.27;;
3769;SDS011;1900;48.890;9.190;2023-04-19T12:26:02;18.97;;;12.03;;
3769;SDS011;1900;48.890;9.190;2023-04-19T12:28:32;16.90;;;12.07;;
3769;SDS011;1900;48.890;9.190;2023-04-19T12:30:58;18.13;;;11.47;;
3769;SDS011;1900;48.890;9.190;2023-04-19T12:33:23;21.93;;;11.33;;
3769;SDS011;1900;48.890;9.190;2023-04-19T12:35:49;20.03;;;12.13;;
3769;SDS011;1900;48.890;9.190;2023-04-19T12:38:15;18.40;;;11.57;;
3769;SDS011;1900;48.890;9.190;2023-04-19T12:40:41;23.63;;;12.87;;
3769;SDS011;1900;48.890;9.190;2023-04-19T12:43:08;20.70;;;11.30;;
3769;SDS011;1900;48.890;9.190;2023-04-19T12:45:33;16.53;;;11.77;;
3769;SDS011;1900;48.890;9.190;2023-04-19T12:47:59;17.73;;;11.03;;
3769;SDS011;1900;48.890;9.190;2023-04-19T12:50:25;18.40;;;11.57;;
3769;SDS011;1900;48.890;9.190;2023-04-19T12:52:50;19.70;;;11.70;;
3769;SDS011;1900;48.890;9.190;2023-04-19T12:55:18;17.53;;;12.77;;
3769;SDS011;1900;48.890;9.190;2023-04-19T12:57:43;17.80;;;12.07;;
3769;SDS011;1900;48.890;9.190;2023-04-19T13:00:09;19.90;;;11.90;;
3769;SDS011;1900;48.890;9.190;2023-04-19T13:02:36;21.37;;;12.03;;
3769;SDS011;1900;48.890;9.190;2023-04-19T13:05:02;18.60;;;10.97;;
3769;SDS011;1900;48.890;9.190;2023-04-19T13:07:31;21.00;;;11.87;;
3769;SDS011;1900;48.890;9.190;2023-04-19T13:09:57;19.33;;;11.63;;
3769;SDS011;1900;48.890;9.190;2023-04-19T13:12:23;18.33;;;11.10;;
3769;SDS011;1900;48.890;9.190;2023-04-19T13:14:49;28.50;;;11.83;;
3769;SDS011;1900;48.890;9.190;2023-04-19T13:17:19;20.70;;;11.60;;
3769;SDS011;1900;48.890;9.190;2023-04-19T13:19:45;19.27;;;11.53;;
3769;SDS011;1900;48.890;9.190;2023-04-19T13:22:11;24.97;;;11.90;;
3769;SDS011;1900;48.890;9.190;2023-04-19T13:24:37;14.93;;;11.10;;
3769;SDS011;1900;48.890;9.190;2023-04-19T13:27:05;16.20;;;11.80;;
3769;SDS011;1900;48.890;9.190;2023-04-19T13:29:31;21.47;;;11.90;;
3769;SDS011;1900;48.890;9.190;2023-04-19T13:31:56;16.70;;;10.17;;
3769;SDS011;1900;48.890;9.190;2023-04-19T13:34:22;16.50;;;10.60;;
3769;SDS011;1900;48.890;9.190;2023-04-19T13:36:48;16.50;;;9.90;;
3769;SDS011;1900;48.890;9.190;2023-04-19T13:39:14;16.30;;;9.13;;
3769;SDS011;1900;48.890;9.190;2023-04-19T13:41:40;11.93;;;8.90;;
3769;SDS011;1900;48.890;9.190;2023-04-19T13:44:05;20.20;;;9.40;;
3769;SDS011;1900;48.890;9.190;2023-04-19T13:46:31;17.63;;;9.63;;
3769;SDS011;1900;48.890;9.190;2023-04-19T13:48:57;15.30;;;9.10;;
3769;SDS011;1900;48.890;9.190;2023-04-19T13:51:23;14.03;;;8.50;;
3769;SDS011;1900;48.890;9.190;2023-04-19T13:53:49;11.20;;;8.67;;
3769;SDS011;1900;48.890;9.190;2023-04-19T13:56:15;11.80;;;8.63;;
3769;SDS011;1900;48.890;9.190;2023-04-19T13:58:40;12.40;;;7.67;;
3769;SDS011;1900;48.890;9.190;2023-04-19T14:01:06;12.90;;;8.27;;
3769;SDS011;1900;48.890;9.190;2023-04-19T14:03:32;14.43;;;8.30;;
3769;SDS011;1900;48.890;9.190;2023-04-19T14:05:57;21.63;;;9.50;;
3769;SDS011;1900;48.890;9.190;2023-04-19T14:08:23;13.47;;;8.20;;
3769;SDS011;1900;48.890;9.190;2023-04-19T14:10:49;13.70;;;8.70;;
3769;SDS011;1900;48.890;9.190;2023-04-19T14:13:15;11.87;;;8.30;;
3769;SDS011;1900;48.890;9.190;2023-04-19T14:15:40;11.03;;;8.60;;
3769;SDS011;1900;48.890;9.190;2023-04-19T14:18:06;17.00;;;8.53;;
3769;SDS011;1900;48.890;9.190;2023-04-19T14:20:32;16.07;;;8.73;;
3769;SDS011;1900;48.890;9.190;2023-04-19T14:22:58;12.87;;;8.70;;
3769;SDS011;1900;48.890;9.190;2023-04-19T14:25:24;11.87;;;9.20;;
3769;SDS011;1900;48.890;9.190;2023-04-19T14:27:50;13.40;;;8.27;;
3769;SDS011;1900;48.890;9.190;2023-04-19T14:30:16;14.80;;;9.07;;
3769;SDS011;1900;48.890;9.190;2023-04-19T14:32:42;9.00;;;7.83;;
3769;SDS011;1900;48.890;9.190;2023-04-19T14:35:07;12.37;;;7.97;;
3769;SDS011;1900;48.890;9.190;2023-04-19T14:37:35;15.30;;;8.80;;
3769;SDS011;1900;48.890;9.190;2023-04-19T14:40:01;10.30;;;8.13;;
3769;SDS011;1900;48.890;9.190;2023-04-19T14:42:27;12.20;;;9.90;;
3769;SDS011;1900;48.890;9.190;2023-04-19T14:44:52;10.30;;;7.97;;
3769;SDS011;1900;48.890;9.190;2023-04-19T14:47:18;10.10;;;7.93;;
3769;SDS011;1900;48.890;9.190;2023-04-19T14:49:45;13.57;;;9.10;;
3769;SDS011;1900;48.890;9.190;2023-04-19T14:52:11;15.50;;;9.53;;
3769;SDS011;1900;48.890;9.190;2023-04-19T14:54:36;12.00;;;7.80;;
3769;SDS011;1900;48.890;9.190;2023-04-19T14:57:02;10.80;;;7.60;;
3769;SDS011;1900;48.890;9.190;2023-04-19T14:59:28;14.00;;;8.90;;
3769;SDS011;1900;48.890;9.190;2023-04-19T15:01:54;12.30;;;8.17;;
3769;SDS011;1900;48.890;9.190;2023-04-19T15:04:19;10.40;;;8.10;;
3769;SDS011;1900;48.890;9.190;2023-04-19T15:06:45;12.83;;;8.97;;
3769;SDS011;1900;48.890;9.190;2023-04-19T15:09:11;15.83;;;9.17;;
3769;SDS011;1900;48.890;9.190;2023-04-19T15:11:37;16.00;;;9.90;;
3769;SDS011;1900;48.890;9.190;2023-04-19T15:14:02;16.27;;;8.20;;
3769;SDS011;1900;48.890;9.190;2023-04-19T15:16:28;13.43;;;9.03;;